Time;durP1;ratioP1;P1;durP2;ratioP2;P2;SDS_P1;SDS_P2;PMS_P1;PMS_P2;Temp;Humidity;BMP_temperature;BMP_pressure;BME280_temperature;BME280_humidity;BME280_pressure;Samples;Min_cycle;Max_cycle;Signal;HPM_P1;HPM_P2
2024/02/17 00:02:23;;;;;;;22.40;16.53;;;10.10;99.90;;;;;;5091167;28;20268;-73
2024/02/17 00:04:49;;;;;;;30.93;17.20;;;10.20;99.90;;;;;;5091037;28;20525;-73
2024/02/17 00:07:14;;;;;;;27.23;18.13;;;10.20;99.90;;;;;;5091555;28;20176;-73
2024/02/17 00:09:40;;;;;;;26.93;17.47;;;10.30;99.90;;;;;;5091824;28;20189;-73
2024/02/17 00:12:07;;;;;;;24.33;16.77;;;10.30;99.90;;;;;;5091200;28;20289;-73
2024/02/17 00:14:34;;;;;;;25.73;17.20;;;10.40;99.90;;;;;;5091742;28;20199;-73
2024/02/17 00:17:03;;;;;;;26.30;17.07;;;10.40;99.90;;;;;;5091297;28;20203;-73
2024/02/17 00:19:29;;;;;;;23.83;16.20;;;10.50;99.90;;;;;;5091497;28;20162;-73
2024/02/17 00:21:55;;;;;;;24.63;17.30;;;10.50;99.90;;;;;;5090982;28;20200;-73
2024/02/17 00:24:20;;;;;;;25.23;18.73;;;10.50;99.90;;;;;;5091707;28;20165;-73
2024/02/17 00:26:46;;;;;;;31.97;18.20;;;10.40;99.90;;;;;;5091262;28;20175;-73
2024/02/17 00:29:11;;;;;;;26.03;17.33;;;10.40;99.90;;;;;;5091297;28;20259;-72
2024/02/17 00:31:37;;;;;;;30.37;17.70;;;10.30;99.90;;;;;;5094725;28;20201;-73
2024/02/17 00:34:03;;;;;;;30.17;17.43;;;10.20;99.90;;;;;;5095360;28;20171;-73
2024/02/17 00:36:28;;;;;;;31.13;17.37;;;10.20;99.90;;;;;;5095568;28;20165;-73
2024/02/17 00:38:54;;;;;;;25.03;17.63;;;10.10;99.90;;;;;;5095097;28;20173;-73
2024/02/17 00:41:21;;;;;;;30.23;18.70;;;10.10;99.90;;;;;;5095227;28;20198;-73
2024/02/17 00:43:46;;;;;;;33.20;19.00;;;10.00;99.90;;;;;;5095061;28;20662;-73
2024/02/17 00:46:12;;;;;;;28.83;19.30;;;10.00;99.90;;;;;;5095636;28;20177;-73
2024/02/17 00:48:37;;;;;;;30.30;18.90;;;9.90;99.90;;;;;;5096783;28;20533;-72
2024/02/17 00:51:03;;;;;;;30.67;20.13;;;9.90;99.90;;;;;;5096820;28;20280;-73
2024/02/17 00:53:29;;;;;;;30.87;21.57;;;9.90;99.90;;;;;;5094887;28;20174;-72
2024/02/17 00:55:55;;;;;;;32.87;20.37;;;9.90;99.90;;;;;;5094660;28;20166;-73
2024/02/17 00:58:20;;;;;;;38.50;22.57;;;9.90;99.90;;;;;;5094948;28;20173;-72
2024/02/17 01:00:46;;;;;;;32.13;20.90;;;9.90;99.90;;;;;;5094496;28;20225;-72
2024/02/17 01:03:12;;;;;;;31.70;20.57;;;10.00;99.90;;;;;;5094358;28;20189;-72
2024/02/17 01:05:38;;;;;;;35.20;21.20;;;10.00;99.90;;;;;;5095044;28;20358;-72
2024/02/17 01:08:09;;;;;;;36.57;21.00;;;10.10;99.90;;;;;;5094828;28;20212;-72
2024/02/17 01:10:35;;;;;;;34.20;20.33;;;10.10;99.90;;;;;;5094336;28;20196;-73
2024/02/17 01:13:01;;;;;;;33.73;20.80;;;10.10;99.90;;;;;;5094072;28;20583;-73
2024/02/17 01:15:27;;;;;;;31.60;20.57;;;10.20;99.90;;;;;;5094731;28;20164;-72
2024/02/17 01:17:53;;;;;;;30.27;19.13;;;10.20;99.90;;;;;;5094503;28;20323;-72
2024/02/17 01:20:19;;;;;;;36.47;21.10;;;10.30;99.90;;;;;;5094529;28;20168;-72
2024/02/17 01:22:44;;;;;;;35.03;19.90;;;10.30;99.90;;;;;;5094159;28;20175;-73
2024/02/17 01:25:10;;;;;;;32.47;18.37;;;10.40;99.90;;;;;;5094317;28;20180;-73
2024/02/17 01:27:35;;;;;;;40.67;19.77;;;10.40;99.90;;;;;;5094479;28;20290;-72
2024/02/17 01:30:01;;;;;;;27.67;19.17;;;10.40;99.90;;;;;;5094283;28;20180;-72
2024/02/17 01:32:27;;;;;;;34.70;19.23;;;10.40;99.90;;;;;;5094487;28;20205;-73
2024/02/17 01:34:52;;;;;;;33.10;19.47;;;10.40;99.90;;;;;;5094545;28;20166;-73
2024/02/17 01:37:18;;;;;;;29.53;19.40;;;10.50;99.90;;;;;;5094561;28;20173;-73
2024/02/17 01:39:44;;;;;;;27.93;19.33;;;10.50;99.90;;;;;;5093832;28;20639;-73
2024/02/17 01:42:11;;;;;;;35.13;19.63;;;10.50;99.90;;;;;;5093826;28;20192;-73
2024/02/17 01:44:36;;;;;;;33.50;19.30;;;10.50;99.90;;;;;;5094202;28;20646;-73
2024/02/17 01:47:03;;;;;;;31.70;20.57;;;10.50;99.90;;;;;;5093962;28;20177;-72
2024/02/17 01:49:29;;;;;;;29.07;19.23;;;10.50;99.90;;;;;;5095010;28;20165;-73
2024/02/17 01:51:55;;;;;;;37.33;21.87;;;10.50;99.90;;;;;;5094015;28;20302;-72
2024/02/17 01:54:21;;;;;;;28.93;18.27;;;10.50;99.90;;;;;;5094121;28;20181;-72
2024/02/17 01:56:47;;;;;;;32.33;19.73;;;10.50;99.90;;;;;;5094158;28;20248;-73
2024/02/17 01:59:13;;;;;;;29.17;18.60;;;10.50;99.90;;;;;;5094060;28;20254;-71
2024/02/17 02:01:43;;;;;;;33.83;19.07;;;10.50;99.90;;;;;;5093508;28;20566;-72
2024/02/17 02:04:10;;;;;;;36.67;19.93;;;10.50;99.90;;;;;;5092768;28;20835;-73
2024/02/17 02:06:38;;;;;;;29.37;18.73;;;10.50;99.90;;;;;;5094208;28;20642;-72
2024/02/17 02:09:04;;;;;;;28.23;18.00;;;10.50;99.90;;;;;;5093779;28;20574;-72
2024/02/17 02:11:31;;;;;;;28.23;18.23;;;10.50;99.90;;;;;;5094035;28;20194;-72
2024/02/17 02:14:13;;;;;;;25.80;18.00;;;10.50;99.90;;;;;;5096702;28;20268;-73
2024/02/17 02:16:39;;;;;;;29.60;18.00;;;10.50;99.90;;;;;;5095475;28;20634;-72
2024/02/17 02:19:04;;;;;;;30.07;18.97;;;10.50;99.90;;;;;;5092815;28;20238;-72
2024/02/17 02:21:30;;;;;;;30.50;19.40;;;10.50;99.90;;;;;;5093225;28;20677;-71
2024/02/17 02:23:55;;;;;;;32.13;19.60;;;10.50;99.90;;;;;;5093297;28;20169;-73
2024/02/17 02:26:23;;;;;;;36.53;19.43;;;10.50;99.90;;;;;;5093340;28;20654;-72
2024/02/17 02:28:48;;;;;;;30.67;18.30;;;10.40;99.90;;;;;;5091927;28;20173;-73
2024/02/17 02:31:14;;;;;;;31.67;17.80;;;10.50;99.90;;;;;;5093105;28;20249;-73
2024/02/17 02:33:40;;;;;;;31.10;18.47;;;10.50;99.90;;;;;;5092846;28;20178;-73
2024/02/17 02:36:06;;;;;;;31.83;17.37;;;10.50;99.90;;;;;;5093466;28;20211;-72
2024/02/17 02:38:31;;;;;;;22.20;15.43;;;10.50;99.90;;;;;;5093253;28;20177;-71
2024/02/17 02:40:57;;;;;;;21.17;14.70;;;10.50;99.90;;;;;;5092784;28;20189;-73
2024/02/17 02:43:23;;;;;;;23.47;15.10;;;10.50;99.90;;;;;;5093010;28;20180;-73
2024/02/17 02:45:48;;;;;;;24.63;15.03;;;10.50;99.90;;;;;;5092785;28;20650;-71
2024/02/17 02:48:14;;;;;;;27.70;16.00;;;10.50;99.90;;;;;;5092811;28;20267;-73
2024/02/17 02:50:39;;;;;;;26.00;16.03;;;10.50;99.90;;;;;;5092874;28;20577;-72
2024/02/17 02:53:06;;;;;;;26.30;16.47;;;10.50;99.90;;;;;;5091960;28;20212;-72
2024/02/17 02:55:32;;;;;;;22.53;15.07;;;10.40;99.90;;;;;;5092771;28;20178;-72
2024/02/17 02:57:57;;;;;;;26.70;15.47;;;10.40;99.90;;;;;;5093303;28;20539;-72
2024/02/17 03:00:23;;;;;;;29.07;15.90;;;10.40;99.90;;;;;;5092353;28;20662;-72
2024/02/17 03:02:49;;;;;;;22.43;15.53;;;10.40;99.90;;;;;;5092428;28;20182;-72
2024/02/17 03:05:14;;;;;;;28.13;14.97;;;10.40;99.90;;;;;;5093184;28;20283;-73
2024/02/17 03:07:40;;;;;;;22.27;15.07;;;10.40;99.90;;;;;;5092386;28;20224;-73
2024/02/17 03:10:06;;;;;;;26.80;15.57;;;10.30;99.90;;;;;;5093546;28;20204;-72
2024/02/17 03:12:32;;;;;;;25.53;14.67;;;10.40;99.90;;;;;;5092527;28;20212;-72
2024/02/17 03:14:58;;;;;;;17.47;12.67;;;10.30;99.90;;;;;;5092813;28;20253;-72
2024/02/17 03:17:24;;;;;;;18.77;12.83;;;10.30;99.90;;;;;;5092603;28;20204;-72
2024/02/17 03:19:51;;;;;;;18.53;13.60;;;10.30;99.90;;;;;;5092252;28;20598;-74
2024/02/17 03:22:19;;;;;;;20.17;13.37;;;10.30;99.90;;;;;;5092313;28;20193;-73
2024/02/17 03:24:48;;;;;;;21.37;13.80;;;10.30;99.90;;;;;;5092679;28;20618;-73
2024/02/17 03:27:13;;;;;;;23.13;13.80;;;10.40;99.90;;;;;;5092430;28;20181;-73
2024/02/17 03:29:39;;;;;;;23.67;13.33;;;10.30;99.90;;;;;;5092127;28;20268;-73
2024/02/17 03:32:05;;;;;;;18.03;12.77;;;10.40;99.90;;;;;;5091758;28;20292;-72
2024/02/17 03:34:34;;;;;;;15.20;12.80;;;10.30;99.90;;;;;;5092897;28;20169;-73
2024/02/17 03:37:00;;;;;;;21.63;12.60;;;10.30;99.90;;;;;;5093088;28;20662;-74
2024/02/17 03:39:25;;;;;;;23.03;13.10;;;10.30;99.90;;;;;;5096759;28;20201;-73
2024/02/17 03:41:51;;;;;;;20.13;14.27;;;10.30;99.90;;;;;;5092368;28;20200;-72
2024/02/17 03:44:18;;;;;;;18.57;13.23;;;10.20;99.90;;;;;;5091860;28;20185;-73
2024/02/17 03:46:43;;;;;;;21.70;13.90;;;10.30;99.90;;;;;;5092221;28;20260;-73
2024/02/17 03:49:09;;;;;;;17.00;12.27;;;10.20;99.90;;;;;;5091886;28;20261;-73
2024/02/17 03:51:36;;;;;;;20.40;13.13;;;10.20;99.90;;;;;;5091803;28;20221;-72
2024/02/17 03:54:02;;;;;;;23.43;13.33;;;10.20;99.90;;;;;;5091834;28;20200;-74
2024/02/17 03:56:28;;;;;;;20.43;13.10;;;10.20;99.90;;;;;;5091961;28;20165;-73
2024/02/17 03:58:54;;;;;;;18.73;13.10;;;10.20;99.90;;;;;;5091638;28;20195;-73
2024/02/17 04:01:20;;;;;;;18.93;12.23;;;10.20;99.90;;;;;;5091799;28;20207;-73
2024/02/17 04:03:45;;;;;;;24.80;13.83;;;10.20;99.90;;;;;;5091682;28;20173;-73
2024/02/17 04:06:11;;;;;;;24.53;13.77;;;10.20;99.90;;;;;;5091845;28;20464;-73
2024/02/17 04:08:36;;;;;;;21.87;13.47;;;10.20;99.90;;;;;;5091454;28;20260;-73
2024/02/17 04:11:02;;;;;;;24.10;13.73;;;10.20;99.90;;;;;;5091542;28;20197;-73
2024/02/17 04:13:28;;;;;;;21.53;12.20;;;10.20;99.90;;;;;;5091332;28;20237;-73
2024/02/17 04:15:54;;;;;;;17.53;13.03;;;10.20;99.90;;;;;;5091883;28;20173;-72
2024/02/17 04:18:19;;;;;;;21.20;13.40;;;10.20;99.90;;;;;;5091692;28;20656;-72
2024/02/17 04:20:46;;;;;;;22.50;14.23;;;10.20;99.90;;;;;;5091572;28;20212;-73
2024/02/17 04:23:12;;;;;;;18.67;13.70;;;10.20;99.90;;;;;;5091250;28;20272;-73
2024/02/17 04:25:40;;;;;;;27.30;14.53;;;10.20;99.90;;;;;;5091614;28;20269;-73
2024/02/17 04:28:06;;;;;;;18.80;13.60;;;10.20;99.90;;;;;;5091433;28;20207;-73
2024/02/17 04:30:33;;;;;;;22.43;13.77;;;10.20;99.90;;;;;;5091357;28;20257;-71
2024/02/17 04:32:59;;;;;;;29.00;15.43;;;10.20;99.90;;;;;;5091029;28;20201;-71
2024/02/17 04:35:25;;;;;;;20.83;14.10;;;10.20;99.90;;;;;;5091515;28;20165;-73
2024/02/17 04:37:51;;;;;;;24.07;14.10;;;10.20;99.90;;;;;;5091592;28;20169;-72
2024/02/17 04:40:17;;;;;;;23.33;15.00;;;10.20;99.90;;;;;;5091263;28;20166;-72
2024/02/17 04:42:43;;;;;;;21.03;13.83;;;10.20;99.90;;;;;;5091284;28;20175;-72
2024/02/17 04:45:09;;;;;;;23.47;15.30;;;10.20;99.90;;;;;;5091184;28;20212;-72
2024/02/17 04:47:35;;;;;;;17.70;14.27;;;10.10;99.90;;;;;;5091461;28;20579;-72
2024/02/17 04:50:01;;;;;;;23.03;14.30;;;10.10;99.90;;;;;;5091021;28;20226;-73
2024/02/17 04:52:26;;;;;;;23.57;15.53;;;10.20;99.90;;;;;;5091109;28;20201;-72
2024/02/17 04:54:52;;;;;;;23.50;15.07;;;10.20;99.90;;;;;;5091248;28;20176;-72
2024/02/17 04:57:18;;;;;;;23.73;15.33;;;10.20;99.90;;;;;;5091304;28;20166;-72
2024/02/17 04:59:44;;;;;;;24.20;14.70;;;10.20;99.90;;;;;;5091369;28;20165;-72
2024/02/17 05:02:10;;;;;;;26.20;14.30;;;10.20;99.90;;;;;;5091595;28;20193;-72
2024/02/17 05:04:35;;;;;;;23.63;15.33;;;10.20;99.90;;;;;;5097267;28;20252;-72
2024/02/17 05:07:01;;;;;;;24.20;14.43;;;10.10;99.90;;;;;;5090930;28;20277;-72
2024/02/17 05:09:27;;;;;;;20.97;14.93;;;10.10;99.90;;;;;;5091216;28;20274;-72
2024/02/17 05:11:55;;;;;;;21.17;14.67;;;10.10;99.90;;;;;;5091097;28;20293;-72
2024/02/17 05:14:25;;;;;;;20.67;15.10;;;10.10;99.90;;;;;;5091227;28;20177;-71
2024/02/17 05:16:51;;;;;;;21.57;16.03;;;10.10;99.90;;;;;;5093343;28;20260;-74
2024/02/17 05:19:17;;;;;;;26.90;15.07;;;10.10;99.90;;;;;;5094527;28;20248;-72
2024/02/17 05:21:43;;;;;;;23.67;15.80;;;10.10;99.90;;;;;;5094600;28;20284;-73
2024/02/17 05:24:10;;;;;;;20.90;14.33;;;10.10;99.90;;;;;;5094907;28;20181;-71
2024/02/17 05:26:39;;;;;;;27.27;16.33;;;10.10;99.90;;;;;;5094976;28;20533;-72
2024/02/17 05:29:07;;;;;;;23.70;15.80;;;10.10;99.90;;;;;;5095013;28;20166;-72
2024/02/17 05:31:35;;;;;;;22.57;15.80;;;10.00;99.90;;;;;;5094430;28;20209;-73
2024/02/17 05:34:02;;;;;;;24.13;15.30;;;10.00;99.90;;;;;;5094341;28;20208;-72
2024/02/17 05:36:28;;;;;;;22.83;16.20;;;10.00;99.90;;;;;;5094955;28;20180;-73
2024/02/17 05:38:54;;;;;;;23.90;17.03;;;10.00;99.90;;;;;;5094416;28;20173;-72
2024/02/17 05:41:20;;;;;;;21.93;16.10;;;10.00;99.90;;;;;;5094175;28;20308;-72
2024/02/17 05:43:46;;;;;;;25.43;16.93;;;10.00;99.90;;;;;;5094052;28;20693;-72
2024/02/17 05:46:13;;;;;;;26.83;16.50;;;10.00;99.90;;;;;;5093243;28;20231;-72
2024/02/17 05:48:38;;;;;;;25.10;16.90;;;10.00;99.90;;;;;;5094271;28;20638;-73
2024/02/17 05:51:04;;;;;;;29.50;15.77;;;10.00;99.90;;;;;;5094224;28;20189;-73
2024/02/17 05:53:30;;;;;;;24.60;16.33;;;10.00;99.90;;;;;;5093900;28;20700;-73
2024/02/17 05:55:56;;;;;;;25.87;15.33;;;10.00;99.90;;;;;;5094194;28;20169;-72
2024/02/17 05:58:22;;;;;;;30.40;16.57;;;10.00;99.90;;;;;;5093987;28;20182;-73
2024/02/17 06:00:48;;;;;;;28.27;16.47;;;10.00;99.90;;;;;;5093539;28;20608;-72
2024/02/17 06:03:17;;;;;;;24.30;17.27;;;10.00;99.90;;;;;;5093513;28;20542;-72
2024/02/17 06:05:44;;;;;;;23.50;15.77;;;10.00;99.90;;;;;;5093798;28;20268;-73
2024/02/17 06:08:09;;;;;;;25.83;16.33;;;10.00;99.90;;;;;;5094129;28;20173;-73
2024/02/17 06:10:35;;;;;;;25.10;15.13;;;10.00;99.90;;;;;;5094000;28;20204;-72
2024/02/17 06:13:01;;;;;;;19.97;14.87;;;10.00;99.90;;;;;;5189556;22;20295;-70
2024/02/17 06:15:26;;;;;;;27.07;16.83;;;10.00;99.90;;;;;;5114691;28;20269;-71
2024/02/17 06:23:24;;;;;;;29.03;17.40;;;10.00;99.90;;;;;;5113769;28;20752;-69
2024/02/17 06:25:50;;;;;;;28.77;16.53;;;10.00;99.90;;;;;;5113840;28;20172;-70
2024/02/17 06:28:15;;;;;;;21.20;15.90;;;10.00;99.90;;;;;;5094859;28;20660;-70
2024/02/17 06:30:41;;;;;;;21.10;16.37;;;10.00;99.90;;;;;;5093363;28;20185;-70
2024/02/17 06:33:06;;;;;;;23.03;16.07;;;9.90;99.90;;;;;;5090491;28;20204;-69
2024/02/17 06:35:32;;;;;;;26.63;16.23;;;10.00;99.90;;;;;;5114004;28;20165;-69
2024/02/17 06:37:58;;;;;;;25.30;15.80;;;10.00;99.90;;;;;;5114007;28;20250;-70
2024/02/17 06:40:23;;;;;;;25.33;17.40;;;10.00;99.90;;;;;;5111744;28;20169;-70
2024/02/17 06:42:49;;;;;;;24.40;16.63;;;10.00;99.90;;;;;;5099210;28;20725;-71
2024/02/17 06:45:16;;;;;;;28.90;17.03;;;10.00;99.90;;;;;;5104194;28;20251;-70
2024/02/17 06:47:45;;;;;;;27.07;16.73;;;10.00;99.90;;;;;;5112032;28;20211;-70
2024/02/17 06:50:11;;;;;;;23.87;15.53;;;10.00;99.90;;;;;;5104239;28;20577;-70
2024/02/17 06:52:38;;;;;;;28.30;16.67;;;10.00;99.90;;;;;;5094002;28;20201;-70
2024/02/17 06:55:04;;;;;;;25.13;16.33;;;10.00;99.90;;;;;;5112424;28;20595;-70
2024/02/17 06:57:30;;;;;;;27.20;15.90;;;10.00;99.90;;;;;;5113661;28;20241;-70
2024/02/17 06:59:56;;;;;;;21.33;15.00;;;10.00;99.90;;;;;;5113854;28;20200;-70
2024/02/17 07:02:23;;;;;;;23.23;15.37;;;10.00;99.90;;;;;;5112760;28;20181;-72
2024/02/17 07:04:49;;;;;;;19.17;14.67;;;10.00;99.90;;;;;;5113497;28;20546;-70
2024/02/17 07:07:15;;;;;;;23.13;15.70;;;10.10;99.90;;;;;;5112883;28;20260;-70
2024/02/17 07:09:41;;;;;;;25.27;16.67;;;10.10;99.90;;;;;;5112822;28;20214;-70
2024/02/17 07:12:06;;;;;;;27.33;16.83;;;10.10;99.90;;;;;;5112177;28;20649;-71
2024/02/17 07:14:32;;;;;;;25.73;14.60;;;10.10;99.90;;;;;;5112776;28;20326;-70
2024/02/17 07:16:58;;;;;;;20.03;13.70;;;10.10;99.90;;;;;;5112765;28;20169;-69
2024/02/17 07:19:23;;;;;;;22.03;15.17;;;10.10;99.90;;;;;;5112709;28;20169;-70
2024/02/17 07:21:49;;;;;;;25.47;15.33;;;10.10;99.90;;;;;;5112682;28;20168;-70
2024/02/17 07:24:15;;;;;;;22.50;15.57;;;10.10;99.90;;;;;;5112286;28;20195;-70
2024/02/17 07:26:44;;;;;;;22.20;14.67;;;10.10;99.90;;;;;;5112537;28;20649;-70
2024/02/17 07:29:11;;;;;;;24.20;15.13;;;10.10;99.90;;;;;;5111897;28;20173;-70
2024/02/17 07:31:41;;;;;;;24.10;14.37;;;10.10;99.90;;;;;;5098200;28;20189;-71
2024/02/17 07:34:15;;;;;;;22.77;14.10;;;10.10;99.90;;;;;;5108183;28;20650;-71
2024/02/17 07:36:43;;;;;;;19.50;13.47;;;10.20;99.90;;;;;;5098467;28;20656;-71
2024/02/17 07:39:09;;;;;;;22.23;14.43;;;10.20;99.90;;;;;;5111728;28;20222;-70
2024/02/17 07:41:35;;;;;;;23.47;14.53;;;10.20;99.90;;;;;;5106659;28;20173;-71
2024/02/17 07:44:00;;;;;;;25.37;13.80;;;10.20;99.90;;;;;;5100121;28;20548;-71
2024/02/17 07:46:26;;;;;;;24.97;13.97;;;10.20;99.90;;;;;;5111862;28;20571;-71
2024/02/17 07:48:51;;;;;;;26.70;14.27;;;10.20;99.90;;;;;;5111983;28;20226;-70
2024/02/17 07:51:17;;;;;;;21.30;14.33;;;10.20;99.90;;;;;;5111561;28;20183;-71
2024/02/17 07:53:43;;;;;;;24.87;14.13;;;10.30;99.90;;;;;;5111677;28;20185;-70
2024/02/17 07:56:09;;;;;;;22.00;13.93;;;10.30;99.90;;;;;;5111713;28;20251;-71
2024/02/17 07:58:35;;;;;;;23.47;14.47;;;10.30;99.90;;;;;;5111913;28;20173;-71
2024/02/17 08:01:01;;;;;;;18.43;14.13;;;10.30;99.90;;;;;;5111849;28;20217;-71
2024/02/17 08:03:27;;;;;;;18.90;14.47;;;10.40;99.90;;;;;;5111326;28;20207;-70
2024/02/17 08:05:53;;;;;;;26.37;13.63;;;10.30;99.90;;;;;;5111759;28;20172;-70
2024/02/17 08:08:19;;;;;;;22.93;13.03;;;10.40;99.90;;;;;;5111457;28;20529;-70
2024/02/17 08:10:45;;;;;;;21.50;12.67;;;10.40;99.90;;;;;;5111433;28;20185;-70
2024/02/17 08:13:10;;;;;;;16.87;11.97;;;10.40;99.90;;;;;;5110590;28;20216;-70
2024/02/17 08:15:36;;;;;;;19.57;13.43;;;10.50;99.90;;;;;;5111078;28;20175;-70
2024/02/17 08:18:05;;;;;;;18.17;12.43;;;10.40;99.90;;;;;;5109205;28;20175;-70
2024/02/17 08:20:31;;;;;;;22.50;12.80;;;10.50;99.90;;;;;;5092174;28;20173;-70
2024/02/17 08:22:57;;;;;;;20.93;11.97;;;10.50;99.90;;;;;;5090116;28;20323;-71
2024/02/17 08:25:24;;;;;;;20.83;12.60;;;10.50;99.90;;;;;;5095055;28;20177;-71
2024/02/17 08:27:49;;;;;;;17.03;11.67;;;10.50;99.90;;;;;;5104496;28;20180;-70
2024/02/17 08:30:15;;;;;;;21.67;13.53;;;10.60;99.90;;;;;;5090972;28;20602;-71
2024/02/17 08:32:41;;;;;;;20.50;12.03;;;10.60;99.90;;;;;;5097301;28;20204;-70
2024/02/17 08:35:07;;;;;;;21.37;12.23;;;10.70;99.90;;;;;;5109306;28;20191;-71
2024/02/17 08:37:33;;;;;;;17.13;11.63;;;10.70;99.90;;;;;;5093555;28;20168;-70
2024/02/17 08:39:58;;;;;;;21.50;12.33;;;10.70;99.90;;;;;;5092234;28;20621;-70
2024/02/17 08:42:25;;;;;;;18.57;11.90;;;10.80;99.90;;;;;;5109205;28;20172;-70
2024/02/17 08:44:53;;;;;;;21.80;10.97;;;10.80;99.90;;;;;;5110031;28;20172;-70
2024/02/17 08:47:23;;;;;;;19.93;10.80;;;10.90;99.90;;;;;;5095144;28;20209;-70
2024/02/17 08:49:52;;;;;;;14.67;10.17;;;11.00;99.90;;;;;;5092014;28;20185;-70
2024/02/17 08:52:18;;;;;;;19.90;9.67;;;11.10;99.90;;;;;;5113533;28;20200;-70
2024/02/17 08:54:43;;;;;;;14.37;10.53;;;11.20;99.90;;;;;;5114976;28;20189;-70
2024/02/17 08:57:09;;;;;;;22.53;11.17;;;11.30;99.90;;;;;;5114546;28;20172;-70
2024/02/17 08:59:36;;;;;;;17.90;10.57;;;11.30;99.90;;;;;;5114738;28;20713;-70
2024/02/17 09:02:02;;;;;;;19.57;11.00;;;11.30;99.90;;;;;;5114544;28;20176;-70
2024/02/17 09:04:27;;;;;;;24.53;10.97;;;11.30;99.90;;;;;;5114216;28;20676;-70
2024/02/17 09:06:53;;;;;;;21.00;10.73;;;11.30;99.90;;;;;;5114833;28;20173;-70
2024/02/17 09:09:18;;;;;;;14.97;9.90;;;11.30;99.90;;;;;;5114217;28;20181;-71
2024/02/17 09:11:49;;;;;;;17.87;11.03;;;11.30;99.90;;;;;;5114344;28;20203;-70
2024/02/17 09:14:14;;;;;;;21.27;10.70;;;11.30;99.90;;;;;;5114369;28;20204;-70
2024/02/17 09:16:40;;;;;;;16.53;10.83;;;11.30;99.90;;;;;;5114548;28;20222;-71
2024/02/17 09:19:05;;;;;;;20.30;10.43;;;11.30;99.90;;;;;;5114007;28;20206;-70
2024/02/17 09:21:32;;;;;;;19.37;10.60;;;11.30;99.90;;;;;;5099899;28;20185;-71
2024/02/17 09:23:57;;;;;;;21.00;10.40;;;11.30;99.90;;;;;;5095668;28;20194;-70
2024/02/17 09:26:23;;;;;;;21.93;11.03;;;11.30;99.90;;;;;;5093908;28;20243;-70
2024/02/17 09:28:49;;;;;;;18.07;11.10;;;11.30;99.90;;;;;;5093884;28;20188;-70
2024/02/17 09:31:15;;;;;;;16.20;10.67;;;11.20;99.90;;;;;;5093192;28;20169;-70
2024/02/17 09:33:40;;;;;;;18.77;10.00;;;11.20;99.90;;;;;;5094654;28;20209;-70
2024/02/17 09:36:07;;;;;;;20.37;10.20;;;11.20;99.90;;;;;;5094086;28;20241;-71
2024/02/17 09:38:33;;;;;;;11.83;10.23;;;11.20;99.90;;;;;;5093767;28;20165;-70
2024/02/17 09:41:00;;;;;;;17.60;10.00;;;11.30;99.90;;;;;;5093753;28;20218;-71
2024/02/17 09:43:25;;;;;;;14.90;9.13;;;11.20;99.90;;;;;;5093311;28;20644;-71
2024/02/17 09:45:51;;;;;;;15.97;9.47;;;11.40;99.90;;;;;;5093720;28;20174;-71
2024/02/17 09:48:17;;;;;;;25.17;10.13;;;11.40;99.90;;;;;;5094936;28;20314;-70
2024/02/17 09:50:44;;;;;;;19.60;10.10;;;11.40;99.90;;;;;;5093473;28;20182;-71
2024/02/17 09:53:12;;;;;;;16.20;10.03;;;11.40;99.90;;;;;;5093046;28;20209;-70
2024/02/17 09:55:37;;;;;;;17.37;9.57;;;11.40;99.90;;;;;;5093471;28;20176;-71
2024/02/17 09:58:03;;;;;;;19.43;10.30;;;11.50;99.90;;;;;;5093473;28;20162;-71
2024/02/17 10:00:29;;;;;;;20.60;10.77;;;11.40;99.90;;;;;;5097363;28;20173;-70
2024/02/17 10:02:54;;;;;;;18.70;9.90;;;11.50;99.90;;;;;;5113491;28;20250;-70
2024/02/17 10:05:21;;;;;;;17.23;10.23;;;11.40;99.90;;;;;;5111850;28;20181;-71
2024/02/17 10:07:51;;;;;;;22.23;11.63;;;11.40;99.90;;;;;;5113768;28;20192;-70
2024/02/17 10:10:18;;;;;;;18.07;9.97;;;11.50;99.90;;;;;;5095263;28;20580;-71
2024/02/17 10:12:54;;;;;;;19.87;10.40;;;11.50;99.90;;;;;;5113111;28;20228;-71
2024/02/17 10:15:21;;;;;;;20.30;11.07;;;11.50;99.90;;;;;;5108451;28;20169;-71
2024/02/17 10:17:48;;;;;;;18.80;10.23;;;11.50;99.90;;;;;;5093062;28;20177;-71
2024/02/17 10:20:14;;;;;;;18.83;10.07;;;11.50;99.90;;;;;;5092721;28;20161;-71
2024/02/17 10:22:43;;;;;;;16.47;10.47;;;11.50;99.90;;;;;;5092703;28;20256;-70
2024/02/17 10:25:10;;;;;;;25.90;11.67;;;11.60;99.90;;;;;;5092825;28;20179;-71
2024/02/17 10:27:38;;;;;;;19.17;10.90;;;11.60;99.90;;;;;;5092774;28;20550;-70
2024/02/17 10:30:10;;;;;;;16.87;10.13;;;11.70;99.90;;;;;;5110625;28;20183;-71
2024/02/17 10:32:36;;;;;;;16.23;10.00;;;11.70;99.90;;;;;;5112680;28;20741;-71
2024/02/17 10:35:04;;;;;;;17.23;11.10;;;11.70;99.90;;;;;;5113116;28;20618;-71
2024/02/17 10:37:31;;;;;;;16.87;9.53;;;11.80;99.90;;;;;;5112954;28;20513;-72
2024/02/17 10:40:03;;;;;;;17.33;9.73;;;11.90;99.90;;;;;;5112809;28;20566;-71
2024/02/17 10:42:30;;;;;;;18.33;9.80;;;11.90;99.90;;;;;;5094201;28;20268;-71
2024/02/17 10:44:57;;;;;;;23.63;10.67;;;11.90;99.90;;;;;;5093884;28;20193;-72
2024/02/17 10:47:28;;;;;;;18.23;9.93;;;11.90;99.90;;;;;;5092043;28;20215;-70
2024/02/17 10:50:14;;;;;;;15.03;9.20;;;11.90;99.90;;;;;;5092145;28;20252;-71
2024/02/17 10:52:44;;;;;;;18.40;10.30;;;11.90;99.90;;;;;;5092855;28;20201;-72
2024/02/17 10:55:12;;;;;;;22.03;9.87;;;11.90;99.90;;;;;;5093490;28;20157;-71
2024/02/17 10:58:10;;;;;;;16.30;10.47;;;11.90;99.90;;;;;;5107354;28;20184;-71
2024/02/17 11:00:43;;;;;;;19.40;9.57;;;11.90;99.90;;;;;;5105901;28;20177;-71
2024/02/17 11:03:10;;;;;;;15.13;9.63;;;12.00;99.90;;;;;;5113149;28;20188;-71
2024/02/17 11:05:42;;;;;;;19.40;9.97;;;12.00;99.90;;;;;;5113097;28;20165;-71
2024/02/17 11:08:08;;;;;;;19.63;9.93;;;12.10;99.90;;;;;;5113465;28;20547;-71
2024/02/17 11:10:34;;;;;;;16.90;9.70;;;12.20;99.90;;;;;;5103950;28;20218;-71
2024/02/17 11:12:59;;;;;;;20.97;10.00;;;12.20;99.90;;;;;;5092249;28;20209;-72
2024/02/17 11:15:26;;;;;;;17.63;9.30;;;12.30;99.90;;;;;;5092201;28;20260;-71
2024/02/17 11:18:01;;;;;;;18.07;10.03;;;12.30;99.90;;;;;;5092294;28;20638;-72
2024/02/17 11:20:27;;;;;;;19.43;10.80;;;12.30;99.90;;;;;;5091940;28;20169;-72
2024/02/17 11:22:56;;;;;;;18.60;9.50;;;12.40;99.90;;;;;;5091592;28;20189;-72
2024/02/17 11:25:30;;;;;;;18.70;9.23;;;12.40;99.90;;;;;;5103439;28;20234;-71
2024/02/17 11:27:58;;;;;;;19.27;9.37;;;12.50;99.90;;;;;;5112169;28;20175;-71
2024/02/17 11:30:25;;;;;;;19.40;9.17;;;12.60;99.90;;;;;;5111981;28;20690;-71
2024/02/17 11:33:03;;;;;;;15.17;8.47;;;12.70;99.90;;;;;;5111677;28;20208;-71
2024/02/17 11:35:32;;;;;;;20.50;9.40;;;12.80;99.90;;;;;;5111843;28;20716;-70
2024/02/17 11:37:59;;;;;;;19.43;8.10;;;12.90;99.90;;;;;;5112084;28;20166;-71
2024/02/17 11:40:25;;;;;;;15.60;8.53;;;12.90;99.90;;;;;;5109986;28;20265;-71
2024/02/17 11:42:55;;;;;;;12.83;7.83;;;13.00;99.90;;;;;;5111525;28;20776;-71
2024/02/17 11:45:22;;;;;;;17.77;8.73;;;13.00;99.90;;;;;;5111683;28;20180;-70
2024/02/17 11:47:48;;;;;;;19.57;8.93;;;12.90;99.90;;;;;;5111792;28;20165;-72
2024/02/17 11:50:14;;;;;;;18.83;8.10;;;12.80;99.90;;;;;;5111883;28;20651;-71
2024/02/17 11:52:41;;;;;;;18.30;8.27;;;12.80;82.70;;;;;;5109608;28;20200;-70
2024/02/17 11:55:07;;;;;;;18.20;9.67;;;12.70;54.80;;;;;;5111104;28;20191;-71
2024/02/17 11:57:33;;;;;;;19.13;9.03;;;12.70;99.90;;;;;;5110543;28;20251;-71
2024/02/17 11:59:58;;;;;;;17.80;9.17;;;12.80;99.90;;;;;;5109591;28;20259;-71
2024/02/17 12:02:24;;;;;;;18.60;9.23;;;12.90;99.90;;;;;;5110859;28;20173;-70
2024/02/17 12:04:51;;;;;;;15.57;9.10;;;13.00;56.90;;;;;;5111606;28;20173;-71
2024/02/17 12:07:17;;;;;;;20.83;9.87;;;13.00;41.50;;;;;;5098694;28;20174;-72
2024/02/17 12:09:44;;;;;;;15.40;9.17;;;13.10;99.90;;;;;;5091117;28;20172;-71
2024/02/17 12:12:09;;;;;;;12.90;8.73;;;13.20;99.90;;;;;;5090682;28;20200;-71
2024/02/17 12:14:35;;;;;;;15.67;8.50;;;13.40;87.30;;;;;;5091047;28;20213;-71
2024/02/17 12:17:01;;;;;;;25.47;9.50;;;13.60;24.70;;;;;;5091535;28;20622;-71
2024/02/17 12:19:30;;;;;;;17.40;7.97;;;13.70;1.00;;;;;;5094078;28;20164;-72
2024/02/17 12:21:56;;;;;;;17.23;9.00;;;13.70;1.00;;;;;;5111140;28;20172;-70
2024/02/17 12:24:22;;;;;;;13.00;8.67;;;13.80;1.00;;;;;;5111357;28;20189;-70
2024/02/17 12:26:50;;;;;;;14.97;9.37;;;13.80;1.00;;;;;;5113749;28;20183;-71
2024/02/17 12:29:16;;;;;;;20.90;9.37;;;13.80;1.00;;;;;;5115506;28;20214;-70
2024/02/17 12:31:46;;;;;;;15.20;8.33;;;13.80;1.00;;;;;;5115305;28;20637;-71